createdAt,value
2018-08-11T00:01:54.676Z,2.90
2018-08-11T00:04:23.104Z,7.83
2018-08-11T00:06:51.707Z,3.47
2018-08-11T00:09:20.276Z,3.20
2018-08-11T00:11:48.772Z,3.77
2018-08-11T00:14:17.196Z,6.23
2018-08-11T00:16:45.763Z,3.20
2018-08-11T00:19:14.237Z,2.83
2018-08-11T00:21:42.727Z,3.60
2018-08-11T00:24:11.308Z,3.60
2018-08-11T00:26:39.710Z,4.57
2018-08-11T00:29:08.146Z,5.10
2018-08-11T00:31:36.566Z,4.77
2018-08-11T00:34:05.175Z,4.40
2018-08-11T00:36:33.627Z,4.83
2018-08-11T00:39:02.021Z,4.17
2018-08-11T00:41:30.530Z,2.47
2018-08-11T00:43:58.985Z,4.30
2018-08-11T00:46:27.391Z,2.80
2018-08-11T00:48:55.837Z,5.07
2018-08-11T00:51:24.266Z,4.33
2018-08-11T00:53:52.663Z,3.60
2018-08-11T00:56:21.174Z,3.70
2018-08-11T00:58:49.734Z,4.20
2018-08-11T01:01:18.254Z,3.63
2018-08-11T01:03:46.719Z,4.43
2018-08-11T01:06:15.285Z,3.97
2018-08-11T01:08:43.780Z,11.20
2018-08-11T01:11:12.321Z,4.80
2018-08-11T01:13:40.738Z,5.07
2018-08-11T01:16:09.185Z,4.10
2018-08-11T01:18:37.646Z,4.90
2018-08-11T01:21:06.094Z,5.00
2018-08-11T01:23:34.632Z,4.00
2018-08-11T01:26:03.079Z,2.93
2018-08-11T01:28:31.514Z,3.80
2018-08-11T01:30:59.991Z,2.77
2018-08-11T01:33:28.768Z,3.20
2018-08-11T01:35:57.345Z,2.23
2018-08-11T01:38:26.029Z,2.23
2018-08-11T01:40:54.448Z,4.13
2018-08-11T01:43:22.847Z,3.83
2018-08-11T01:45:51.292Z,3.10
2018-08-11T01:48:19.735Z,2.87
2018-08-11T01:50:48.195Z,4.23
2018-08-11T01:53:16.589Z,4.40
2018-08-11T01:55:44.972Z,8.73
2018-08-11T01:58:13.496Z,6.63
2018-08-11T02:00:41.923Z,4.97
2018-08-11T02:03:10.311Z,7.50
2018-08-11T02:05:38.842Z,7.00
2018-08-11T02:08:07.439Z,9.47
2018-08-11T02:10:35.847Z,4.10
2018-08-11T02:13:04.279Z,8.20
2018-08-11T02:15:32.691Z,6.03
2018-08-11T02:18:01.096Z,5.20
2018-08-11T02:20:29.554Z,2.40
2018-08-11T02:22:58.131Z,3.83
2018-08-11T02:25:26.794Z,5.50
2018-08-11T02:27:55.219Z,2.30
2018-08-11T02:30:23.661Z,5.00
2018-08-11T02:32:52.059Z,2.50
2018-08-11T02:35:20.596Z,3.70
2018-08-11T02:37:48.995Z,2.57
2018-08-11T02:40:17.445Z,2.70
2018-08-11T02:42:45.854Z,5.47
2018-08-11T02:45:16.021Z,5.50
2018-08-11T02:47:44.959Z,2.00
2018-08-11T02:50:13.584Z,2.60
2018-08-11T02:52:42.341Z,2.43
2018-08-11T02:55:11.047Z,1.30
2018-08-11T02:57:39.508Z,1.07
2018-08-11T03:00:09.649Z,2.57
2018-08-11T03:02:38.398Z,2.10
2018-08-11T03:05:07.019Z,2.70
2018-08-11T03:07:35.687Z,1.47
2018-08-11T03:10:04.714Z,2.60
2018-08-11T03:12:33.145Z,2.30
2018-08-11T03:15:01.570Z,1.20
2018-08-11T03:17:29.972Z,0.93
2018-08-11T03:19:58.454Z,5.37
2018-08-11T03:22:26.972Z,2.50
2018-08-11T03:24:55.388Z,0.90
2018-08-11T03:27:23.834Z,1.30
2018-08-11T03:29:52.236Z,1.30
2018-08-11T03:32:20.768Z,1.90
2018-08-11T03:34:49.214Z,1.70
2018-08-11T03:37:17.826Z,2.37
2018-08-11T03:39:46.244Z,1.23
2018-08-11T03:42:14.612Z,1.53
2018-08-11T03:44:43.048Z,1.37
2018-08-11T03:47:11.473Z,1.60
2018-08-11T03:49:39.872Z,1.73
2018-08-11T03:52:08.302Z,1.47
2018-08-11T03:54:36.725Z,1.47
2018-08-11T03:57:05.200Z,2.37
2018-08-11T03:59:33.620Z,4.33
2018-08-11T04:02:02.052Z,3.00
2018-08-11T04:04:30.628Z,2.53
2018-08-11T04:06:59.420Z,8.60
2018-08-11T04:09:27.820Z,2.30
2018-08-11T04:11:56.228Z,3.50
2018-08-11T04:14:24.732Z,3.10
2018-08-11T04:16:53.215Z,1.50
2018-08-11T04:19:21.708Z,2.40
2018-08-11T04:21:50.170Z,3.57
2018-08-11T04:24:18.560Z,3.20
2018-08-11T04:26:46.968Z,1.77
2018-08-11T04:29:15.412Z,4.33
2018-08-11T04:31:43.884Z,2.10
2018-08-11T04:34:12.307Z,4.47
2018-08-11T04:36:40.712Z,2.97
2018-08-11T04:39:09.559Z,6.80
2018-08-11T04:41:38.558Z,1.93
2018-08-11T04:44:07.035Z,2.27
2018-08-11T04:46:35.531Z,2.87
2018-08-11T04:49:03.987Z,2.73
2018-08-11T04:51:32.416Z,2.83
2018-08-11T04:54:00.859Z,2.40
2018-08-11T04:56:29.271Z,2.83
2018-08-11T04:58:57.701Z,3.73
2018-08-11T05:01:26.111Z,7.00
2018-08-11T05:03:54.535Z,4.33
2018-08-11T05:06:22.951Z,2.80
2018-08-11T05:08:51.389Z,3.10
2018-08-11T05:11:19.847Z,3.43
2018-08-11T05:13:48.283Z,5.20
2018-08-11T05:16:16.747Z,5.80
2018-08-11T05:18:45.195Z,4.23
2018-08-11T05:21:13.599Z,5.57
2018-08-11T05:23:42.012Z,5.00
2018-08-11T05:26:10.516Z,6.37
2018-08-11T05:28:38.981Z,3.80
2018-08-11T05:31:07.392Z,4.80
2018-08-11T05:33:35.817Z,4.37
2018-08-11T05:36:04.243Z,2.77
2018-08-11T05:38:32.667Z,5.70
2018-08-11T05:41:01.126Z,5.00
2018-08-11T05:43:29.511Z,6.83
2018-08-11T05:45:57.963Z,4.40
2018-08-11T05:48:26.375Z,11.00
2018-08-11T05:50:54.777Z,4.70
2018-08-11T05:53:23.174Z,4.60
2018-08-11T05:55:51.728Z,8.03
2018-08-11T05:58:20.207Z,8.63
2018-08-11T06:00:48.828Z,7.37
2018-08-11T06:03:17.216Z,8.53
2018-08-11T06:05:45.700Z,4.73
2018-08-11T06:08:14.124Z,4.33
2018-08-11T06:10:42.674Z,4.67
2018-08-11T06:13:11.109Z,3.20
2018-08-11T06:15:39.596Z,5.13
2018-08-11T06:18:08.075Z,7.33
2018-08-11T06:20:36.483Z,5.50
2018-08-11T06:23:04.914Z,4.47
2018-08-11T06:25:33.409Z,4.40
2018-08-11T06:28:01.943Z,4.70
2018-08-11T06:30:30.443Z,5.70
2018-08-11T06:32:58.856Z,6.40
2018-08-11T06:35:27.317Z,5.67
2018-08-11T06:37:55.709Z,6.97
2018-08-11T06:40:24.139Z,12.53
2018-08-11T06:42:52.515Z,7.07
2018-08-11T06:45:21.646Z,7.27
2018-08-11T06:47:50.200Z,6.43
2018-08-11T06:50:18.578Z,4.93
2018-08-11T06:52:47.049Z,5.93
2018-08-11T06:55:15.475Z,4.60
2018-08-11T06:57:43.882Z,5.73
2018-08-11T07:00:12.450Z,6.70
2018-08-11T07:02:40.828Z,7.47
2018-08-11T07:05:09.247Z,7.57
2018-08-11T07:07:37.678Z,4.87
2018-08-11T07:10:06.172Z,4.40
2018-08-11T07:12:34.674Z,7.63
2018-08-11T07:15:03.090Z,3.60
2018-08-11T07:17:31.504Z,7.63
2018-08-11T07:19:59.924Z,6.77
2018-08-11T07:22:28.335Z,6.50
2018-08-11T07:24:56.719Z,7.30
2018-08-11T07:27:25.159Z,6.37
2018-08-11T07:29:53.566Z,3.23
2018-08-11T07:32:21.958Z,10.30
2018-08-11T07:34:50.381Z,3.90
2018-08-11T07:37:18.829Z,7.43
2018-08-11T07:39:47.258Z,4.77
2018-08-11T07:42:15.932Z,3.27
2018-08-11T07:44:44.368Z,4.43
2018-08-11T07:47:12.781Z,3.60
2018-08-11T07:49:41.226Z,3.93
2018-08-11T07:52:09.684Z,5.97
2018-08-11T07:54:38.137Z,3.70
2018-08-11T07:57:06.569Z,4.00
2018-08-11T07:59:35.033Z,5.67
2018-08-11T08:02:03.510Z,4.43
2018-08-11T08:04:31.952Z,4.10
2018-08-11T08:07:00.351Z,2.07
2018-08-11T08:09:28.776Z,3.03
2018-08-11T08:11:57.204Z,4.37
2018-08-11T08:14:25.610Z,2.20
2018-08-11T08:16:54.075Z,3.63
2018-08-11T08:19:22.483Z,2.90
2018-08-11T08:21:52.182Z,3.20
2018-08-11T08:24:20.659Z,3.67
2018-08-11T08:26:49.092Z,8.83
2018-08-11T08:29:17.496Z,4.83
2018-08-11T08:31:45.983Z,2.93
2018-08-11T08:34:14.392Z,6.00
2018-08-11T08:36:42.849Z,3.83
2018-08-11T08:39:12.492Z,3.33
2018-08-11T08:41:41.220Z,3.10
2018-08-11T08:44:09.918Z,3.17
2018-08-11T08:46:38.356Z,5.70
2018-08-11T08:49:06.784Z,2.80
2018-08-11T08:51:35.232Z,2.90
2018-08-11T08:54:03.639Z,2.27
2018-08-11T08:56:32.651Z,2.60
2018-08-11T08:59:01.110Z,3.20
2018-08-11T09:01:29.476Z,2.23
2018-08-11T09:03:57.900Z,3.20
2018-08-11T09:06:26.328Z,3.97
2018-08-11T09:08:54.732Z,2.73
2018-08-11T09:11:23.182Z,2.00
2018-08-11T09:13:51.644Z,5.40
2018-08-11T09:16:20.072Z,3.20
2018-08-11T09:18:48.491Z,2.20
2018-08-11T09:21:16.879Z,4.10
2018-08-11T09:23:45.315Z,1.67
2018-08-11T09:26:13.712Z,2.27
2018-08-11T09:28:42.134Z,3.83
2018-08-11T09:31:10.517Z,1.87
2018-08-11T09:33:39.152Z,2.60
2018-08-11T09:36:07.895Z,2.60
2018-08-11T09:38:36.343Z,4.20
2018-08-11T09:41:04.737Z,5.23
2018-08-11T09:43:33.175Z,2.00
2018-08-11T09:46:01.675Z,2.93
2018-08-11T09:48:30.537Z,3.07
2018-08-11T09:50:58.931Z,3.30
2018-08-11T09:53:28.003Z,3.07
2018-08-11T09:55:56.444Z,4.37
2018-08-11T09:58:24.831Z,4.13
2018-08-11T10:00:55.595Z,5.00
2018-08-11T10:03:24.783Z,6.30
2018-08-11T10:05:53.192Z,4.97
2018-08-11T10:08:22.191Z,6.13
2018-08-11T10:10:50.639Z,4.40
2018-08-11T10:13:19.003Z,2.73
2018-08-11T10:15:47.395Z,2.03
2018-08-11T10:18:15.821Z,3.70
2018-08-11T10:20:44.231Z,2.70
2018-08-11T10:23:12.633Z,8.37
2018-08-11T10:25:41.059Z,3.97
2018-08-11T10:28:09.455Z,2.20
2018-08-11T10:30:37.857Z,5.70
2018-08-11T10:33:06.720Z,1.80
2018-08-11T10:35:35.188Z,3.50
2018-08-11T10:38:03.646Z,2.90
2018-08-11T10:40:32.040Z,4.70
2018-08-11T10:43:00.480Z,3.23
2018-08-11T10:45:28.902Z,4.60
2018-08-11T10:47:57.405Z,1.80
2018-08-11T10:50:25.848Z,2.73
2018-08-11T10:52:54.251Z,3.10
2018-08-11T10:55:22.720Z,3.07
2018-08-11T10:57:51.176Z,4.67
2018-08-11T11:00:19.578Z,1.77
2018-08-11T11:02:47.976Z,3.53
2018-08-11T11:05:16.528Z,2.20
2018-08-11T11:07:45.956Z,4.00
2018-08-11T11:10:14.348Z,7.10
2018-08-11T11:12:43.017Z,5.03
2018-08-11T11:15:11.437Z,2.83
2018-08-11T11:17:40.403Z,3.87
2018-08-11T11:20:11.572Z,3.63
2018-08-11T11:22:40.437Z,2.80
2018-08-11T11:25:08.864Z,3.57
2018-08-11T11:27:37.630Z,1.93
2018-08-11T11:30:06.384Z,3.47
2018-08-11T11:32:34.864Z,1.67
2018-08-11T11:35:03.804Z,3.43
2018-08-11T11:37:32.235Z,4.57
2018-08-11T11:40:00.630Z,2.40
2018-08-11T11:42:29.486Z,1.90
2018-08-11T11:44:57.894Z,4.17
2018-08-11T11:47:26.304Z,2.70
2018-08-11T11:49:54.691Z,4.80
2018-08-11T11:52:23.065Z,4.17
2018-08-11T11:54:51.588Z,3.40
2018-08-11T11:57:19.996Z,2.40
2018-08-11T11:59:48.580Z,2.87
2018-08-11T12:02:16.936Z,3.60
2018-08-11T12:04:45.340Z,2.50
2018-08-11T12:07:13.771Z,3.50
2018-08-11T12:09:42.192Z,2.57
2018-08-11T12:12:10.636Z,3.47
2018-08-11T12:14:39.076Z,5.23
2018-08-11T12:17:07.486Z,3.67
2018-08-11T12:19:36.116Z,4.70
2018-08-11T12:22:04.816Z,1.77
2018-08-11T12:24:33.219Z,6.80
2018-08-11T12:27:01.642Z,5.03
2018-08-11T12:29:30.292Z,3.80
2018-08-11T12:31:58.692Z,5.20
2018-08-11T12:34:27.100Z,3.87
2018-08-11T12:36:55.636Z,2.43
2018-08-11T12:39:24.984Z,4.50
2018-08-11T12:41:53.565Z,3.60
2018-08-11T12:44:21.995Z,2.90
2018-08-11T12:46:50.399Z,3.63
2018-08-11T12:49:18.811Z,6.30
2018-08-11T12:51:47.244Z,3.53
2018-08-11T12:54:16.610Z,4.00
2018-08-11T12:56:45.041Z,2.20
2018-08-11T12:59:13.451Z,2.97
2018-08-11T13:01:41.948Z,5.63
2018-08-11T13:04:10.332Z,2.60
2018-08-11T13:06:38.746Z,3.30
2018-08-11T13:09:09.081Z,6.53
2018-08-11T13:11:37.534Z,3.73
2018-08-11T13:14:06.330Z,3.97
2018-08-11T13:16:34.738Z,5.00
2018-08-11T13:19:03.183Z,3.27
2018-08-11T13:21:32.525Z,3.43
2018-08-11T13:24:00.936Z,3.00
2018-08-11T13:26:29.520Z,3.07
2018-08-11T13:28:57.948Z,2.27
2018-08-11T13:31:26.413Z,4.10
2018-08-11T13:33:54.795Z,9.27
2018-08-11T13:36:23.187Z,3.93
2018-08-11T13:38:51.588Z,6.20
2018-08-11T13:41:20.020Z,2.33
2018-08-11T13:43:48.599Z,6.50
2018-08-11T13:46:17.060Z,2.40
2018-08-11T13:48:45.470Z,2.93
2018-08-11T13:51:13.886Z,1.60
2018-08-11T13:53:42.331Z,5.17
2018-08-11T13:56:10.733Z,7.87
2018-08-11T13:58:39.137Z,4.33
2018-08-11T14:01:07.598Z,6.70
2018-08-11T14:03:37.012Z,3.73
2018-08-11T14:06:05.747Z,2.60
2018-08-11T14:08:34.172Z,2.50
2018-08-11T14:11:03.158Z,6.43
2018-08-11T14:13:31.606Z,2.13
2018-08-11T14:16:00.039Z,5.30
2018-08-11T14:18:28.644Z,3.00
2018-08-11T14:20:57.107Z,1.67
2018-08-11T14:23:25.727Z,2.50
2018-08-11T14:25:54.162Z,2.27
2018-08-11T14:28:22.698Z,4.13
2018-08-11T14:30:51.134Z,2.67
2018-08-11T14:33:19.539Z,4.90
2018-08-11T14:35:48.063Z,3.97
2018-08-11T14:38:17.101Z,6.03
2018-08-11T14:40:45.476Z,4.37
2018-08-11T14:43:13.883Z,2.63
2018-08-11T14:45:42.282Z,3.50
2018-08-11T14:48:10.720Z,5.63
2018-08-11T14:50:39.185Z,4.03
2018-08-11T14:53:08.544Z,5.10
2018-08-11T14:55:37.031Z,3.43
2018-08-11T14:58:05.717Z,3.33
2018-08-11T15:00:34.144Z,4.70
2018-08-11T15:03:02.655Z,2.30
2018-08-11T15:05:31.145Z,3.83
2018-08-11T15:07:59.549Z,6.83
2018-08-11T15:10:28.402Z,5.43
2018-08-11T15:12:56.867Z,2.73
2018-08-11T15:15:25.679Z,2.20
2018-08-11T15:17:54.071Z,2.67
2018-08-11T15:20:22.673Z,5.17
2018-08-11T15:22:51.075Z,2.23
2018-08-11T15:25:19.719Z,4.60
2018-08-11T15:27:48.171Z,3.57
2018-08-11T15:30:16.587Z,1.80
2018-08-11T15:32:45.135Z,3.87
2018-08-11T15:35:13.516Z,4.53
2018-08-11T15:37:42.227Z,3.53
2018-08-11T15:40:10.603Z,2.67
2018-08-11T15:42:39.075Z,4.00
2018-08-11T15:45:07.985Z,5.20
2018-08-11T15:47:36.837Z,5.17
2018-08-11T15:50:05.835Z,3.13
2018-08-11T15:52:34.374Z,2.13
2018-08-11T15:55:02.799Z,4.00
2018-08-11T15:57:31.392Z,4.33
2018-08-11T15:59:59.815Z,1.70
2018-08-11T16:02:28.245Z,3.30
2018-08-11T16:04:56.679Z,3.40
2018-08-11T16:07:25.060Z,6.20
2018-08-11T16:09:53.548Z,8.90
2018-08-11T16:12:22.384Z,3.50
2018-08-11T16:14:50.889Z,4.30
2018-08-11T16:17:22.775Z,3.50
2018-08-11T16:19:51.486Z,5.13
2018-08-11T16:22:19.881Z,9.30
2018-08-11T16:24:48.307Z,6.63
2018-08-11T16:27:16.732Z,7.17
2018-08-11T16:29:45.276Z,4.77
2018-08-11T16:32:13.711Z,3.30
2018-08-11T16:34:42.293Z,4.00
2018-08-11T16:37:10.832Z,4.70
2018-08-11T16:39:39.265Z,4.10
2018-08-11T16:42:07.728Z,4.10
2018-08-11T16:44:36.149Z,3.97
2018-08-11T16:47:04.805Z,3.83
2018-08-11T16:49:33.333Z,5.00
2018-08-11T16:52:02.835Z,4.93
2018-08-11T16:54:31.251Z,4.70
2018-08-11T16:56:59.655Z,2.80
2018-08-11T16:59:28.204Z,5.10
2018-08-11T17:01:56.575Z,3.97
2018-08-11T17:04:25.028Z,3.77
2018-08-11T17:06:53.413Z,6.17
2018-08-11T17:09:21.952Z,5.57
2018-08-11T17:11:50.342Z,6.30
2018-08-11T17:14:19.243Z,6.03
2018-08-11T17:16:47.756Z,3.43
2018-08-11T17:19:16.163Z,6.83
2018-08-11T17:21:44.551Z,3.40
2018-08-11T17:24:12.977Z,4.63
2018-08-11T17:26:41.351Z,4.33
2018-08-11T17:29:09.828Z,5.00
2018-08-11T17:31:38.226Z,5.13
2018-08-11T17:34:06.800Z,3.87
2018-08-11T17:36:35.304Z,3.63
2018-08-11T17:39:04.656Z,4.40
2018-08-11T17:41:33.060Z,4.07
2018-08-11T17:44:01.492Z,4.93
2018-08-11T17:46:30.862Z,5.20
2018-08-11T17:48:59.344Z,3.30
2018-08-11T17:51:27.798Z,3.50
2018-08-11T17:53:56.229Z,4.33
2018-08-11T17:56:24.638Z,4.00
2018-08-11T17:58:53.248Z,3.73
2018-08-11T18:01:21.672Z,3.00
2018-08-11T18:03:50.232Z,3.37
2018-08-11T18:06:18.922Z,32.57
2018-08-11T18:08:47.798Z,11.50
2018-08-11T18:11:16.271Z,7.43
2018-08-11T18:13:44.771Z,11.50
2018-08-11T18:16:13.330Z,7.63
2018-08-11T18:18:41.741Z,9.53
2018-08-11T18:21:10.180Z,5.50
2018-08-11T18:23:38.629Z,12.37
2018-08-11T18:26:07.047Z,20.93
2018-08-11T18:28:35.948Z,7.10
2018-08-11T18:31:04.376Z,16.13
2018-08-11T18:33:32.805Z,5.00
2018-08-11T18:36:01.293Z,20.67
2018-08-11T18:38:29.779Z,6.80
2018-08-11T18:40:58.227Z,5.80
2018-08-11T18:43:26.717Z,8.90
2018-08-11T18:45:55.157Z,10.10
2018-08-11T18:48:23.564Z,2.90
2018-08-11T18:50:51.944Z,6.40
2018-08-11T18:53:20.421Z,6.43
2018-08-11T18:55:48.961Z,5.97
2018-08-11T18:58:17.373Z,3.77
2018-08-11T19:00:45.869Z,5.77
2018-08-11T19:03:14.292Z,9.40
2018-08-11T19:05:42.736Z,5.90
2018-08-11T19:08:11.218Z,10.33
2018-08-11T19:10:39.951Z,5.90
2018-08-11T19:13:08.498Z,4.80
2018-08-11T19:15:36.871Z,4.43
2018-08-11T19:18:05.602Z,3.00
2018-08-11T19:20:34.135Z,3.50
2018-08-11T19:23:02.553Z,3.10
2018-08-11T19:25:31.130Z,5.60
2018-08-11T19:27:59.475Z,3.40
2018-08-11T19:30:27.890Z,2.27
2018-08-11T19:32:56.359Z,3.70
2018-08-11T19:35:24.787Z,15.00
2018-08-11T19:37:53.227Z,15.00
2018-08-11T19:40:21.704Z,13.47
2018-08-11T19:42:50.177Z,41.83
2018-08-11T19:45:19.167Z,40.87
2018-08-11T19:47:47.695Z,52.67
2018-08-11T19:50:16.143Z,24.50
2018-08-11T19:52:44.609Z,70.63
2018-08-11T19:55:13.043Z,83.40
2018-08-11T19:57:41.532Z,90.33
2018-08-11T20:00:12.692Z,44.30
2018-08-11T20:02:41.853Z,30.67
2018-08-11T20:05:11.199Z,31.27
2018-08-11T20:07:39.971Z,76.13
2018-08-11T20:10:08.715Z,60.60
2018-08-11T20:12:37.766Z,11.80
2018-08-11T20:15:07.381Z,5.67
2018-08-11T20:17:35.811Z,4.53
2018-08-11T20:20:05.024Z,3.70
2018-08-11T20:22:33.481Z,5.20
2018-08-11T20:25:01.934Z,5.80
2018-08-11T20:27:30.460Z,3.33
2018-08-11T20:29:59.471Z,3.50
2018-08-11T20:32:27.915Z,8.30
2018-08-11T20:34:56.375Z,70.87
2018-08-11T20:37:24.787Z,47.33
2018-08-11T20:39:53.223Z,23.90
2018-08-11T20:42:21.713Z,38.93
2018-08-11T20:44:50.368Z,14.00
2018-08-11T20:47:19.474Z,10.80
2018-08-11T20:49:49.190Z,5.10
2018-08-11T20:52:17.605Z,6.47
2018-08-11T20:54:46.048Z,6.33
2018-08-11T20:57:14.488Z,6.27
2018-08-11T20:59:42.977Z,4.67
2018-08-11T21:02:11.556Z,8.17
2018-08-11T21:04:39.984Z,5.23
2018-08-11T21:07:08.488Z,5.67
2018-08-11T21:09:37.362Z,5.43
2018-08-11T21:12:05.824Z,4.73
2018-08-11T21:14:34.332Z,5.43
2018-08-11T21:17:02.736Z,2.63
2018-08-11T21:19:31.208Z,5.53
2018-08-11T21:21:59.616Z,3.03
2018-08-11T21:24:28.082Z,4.77
2018-08-11T21:26:56.491Z,4.63
2018-08-11T21:29:25.086Z,4.10
2018-08-11T21:31:53.704Z,2.53
2018-08-11T21:34:22.185Z,4.17
2018-08-11T21:36:50.634Z,2.87
2018-08-11T21:39:19.004Z,3.77
2018-08-11T21:41:47.448Z,2.40
2018-08-11T21:44:15.938Z,3.20
2018-08-11T21:46:44.472Z,2.47
2018-08-11T21:49:12.936Z,2.13
2018-08-11T21:51:41.360Z,3.83
2018-08-11T21:54:10.021Z,5.90
2018-08-11T21:56:38.689Z,2.40
2018-08-11T21:59:07.506Z,4.33
2018-08-11T22:01:36.305Z,6.03
2018-08-11T22:04:04.974Z,5.33
2018-08-11T22:06:33.409Z,4.63
2018-08-11T22:09:01.875Z,7.27
2018-08-11T22:11:30.422Z,13.87
2018-08-11T22:13:58.903Z,7.60
2018-08-11T22:16:27.351Z,5.40
2018-08-11T22:18:55.855Z,5.73
2018-08-11T22:21:24.314Z,6.13
2018-08-11T22:23:53.882Z,6.03
2018-08-11T22:26:22.458Z,3.10
2018-08-11T22:28:50.909Z,2.90
2018-08-11T22:31:19.528Z,2.73
2018-08-11T22:33:48.123Z,4.20
2018-08-11T22:36:16.591Z,4.47
2018-08-11T22:38:45.168Z,3.80
2018-08-11T22:41:13.591Z,3.90
2018-08-11T22:43:42.037Z,5.53
2018-08-11T22:46:10.643Z,4.30
2018-08-11T22:48:39.203Z,6.07
2018-08-11T22:51:07.675Z,5.23
2018-08-11T22:53:36.111Z,4.30
2018-08-11T22:56:04.563Z,3.83
2018-08-11T22:58:33.197Z,4.50
2018-08-11T23:01:01.627Z,4.77
2018-08-11T23:03:30.071Z,7.27
2018-08-11T23:05:58.476Z,3.57
2018-08-11T23:08:26.942Z,4.33
2018-08-11T23:10:55.423Z,4.23
2018-08-11T23:13:23.936Z,3.03
2018-08-11T23:15:52.511Z,4.03
2018-08-11T23:18:21.074Z,2.63
2018-08-11T23:20:49.563Z,3.73
2018-08-11T23:23:18.087Z,3.57
2018-08-11T23:25:46.517Z,3.60
2018-08-11T23:28:14.950Z,2.60
2018-08-11T23:30:43.375Z,5.30
2018-08-11T23:33:11.807Z,3.10
2018-08-11T23:35:40.378Z,3.57
2018-08-11T23:38:08.914Z,2.93
2018-08-11T23:40:37.264Z,3.73
2018-08-11T23:43:05.731Z,2.60
2018-08-11T23:45:34.134Z,2.37
2018-08-11T23:48:02.665Z,6.83
2018-08-11T23:50:31.263Z,3.30
2018-08-11T23:53:00.125Z,5.60
2018-08-11T23:55:28.549Z,5.70
2018-08-11T23:57:57.037Z,7.53
